Terminal Aerodrome Forecast
Issued by NWS

Home | Current Version | Previous Version | Text Only | Print | Product List | Glossary On
Versions: 1 2 3 4 5 6 7 8 9 10 11 12 13 14 15 16 17 18 19 20 21 22 23 24 25 26 27 28 29 30
000
FTUS41 KOKX 260200 AAA
TAFTEB
TAF AMD
KTEB 260234Z 2603/2624 34007KT P6SM OVC060
     FM260600 01006KT P6SM BKN040
     FM261100 04008KT P6SM BKN030
      TEMPO 2611/2615 3SM -SN BR BKN015
     FM261500 04010G18KT 1SM -SN BR BKN007
     FM261800 04015G22KT 3/4SM -SN BR BKN007
     FM262300 02018G28KT 1/2SM SN FZFG VV005=

USA.gov is the U.S. government's official web portal to all federal, state and local government web resources and services.